Airfield :
LOGIN :

Register | Disclaimer

   EN    FR    IT 

 










Legend :    VFR   Marginal VFR   IFR   Intensive IFR   Very Intensive IFR
Visi :
Ceiling :
>= 8 km
>= 3000ft
5 to 8 km
1000 to 3000 ft
1500m to 5 km
500 to 1000 ft
800 to 1500m
200 to 500 ft
< 800m
< 200 ft
Symbols :   Thunderstorms  Fog  Heavy snow  Heavy precipitations  Wind > 20 kt
SIGMETs :     Misc.  Thunderstorms  Icing  Turbulence  Mountain Waves  Volcanic Ashes






- Airport Elevation : 84 ft


LFBC - Cazaux

CURRENT METAR :
  • 221230Z AUTO 31007KT 270V360 9999 FEW026 OVC047 15/10 Q1023 NOSIG

EXPIRED METARs :
  • 221200Z AUTO 30007KT 270V340 9999 FEW023 OVC048 16/10 Q1023 NOSIG
  • 221130Z AUTO 29008KT 260V320 9999 SCT031 BKN047 16/10 Q1023 NOSIG
  • 221100Z AUTO 32007KT 280V350 9999 FEW029 BKN041 16/09 Q1023 NOSIG
  • 221030Z AUTO 33009KT 9999 FEW027 SCT034 BKN045 16/10 Q1023 NOSIG
  • 221000Z AUTO 29005KT 270V340 9999 FEW029 OVC046 16/11 Q1023 NOSIG

TAF TAF LFBC
Valid from the 22 at 09:00 until the 23 at 09:00 UTC


220800Z 2209/2309 22003KT 9999 FEW020 BKN030



MET'MAP, your aeronautical weather chart ! - Copyright ORBIFLY December 2007 - Disclaimer

ORBIFLY MET'MAP TEAM :

Programming & Development : Alexandra Zaïnal
Concept & original design : Baudouin d'Aumeries
Assistance for programming : Marc-Olivier Méhu
Technical & hardware support : Manuel Goepfert

Contact : metmap@orbifly.com




SOURCES & CREDITS :

   NOAA